Bookmark and Share
Track history (hours):
 

Agios Georgios I

Last reported at 2014-Apr-16 07:33 UTC. Time now 2014-Apr-16 07:48 UTC.
Position N 37°28' E 025°20'.

Length 59 m; draft 5 m.

Type: Ship (hazmat cat B). MMSI: 239912000.

NotesDate/timePositionNaut miles runAvg speedWind from/ knotsBaromVisibWave heightAir tempDewpointWater temp
2014-Apr-16 07:33N 37°28' E 025°20'0 0.0
2014-Apr-16 06:33N 37°28' E 025°20'0 0.0
2014-Apr-16 05:33N 37°28' E 025°20'0 0.0
2014-Apr-16 04:33N 37°28' E 025°20'0 0.0
2014-Apr-16 03:32N 37°28' E 025°20'4 3.9
2014-Apr-16 02:33N 37°32' E 025°20'8 7.6
2014-Apr-16 01:33N 37°34' E 025°29'7 7.0
2014-Apr-16 00:33N 37°36' E 025°38'19 7.5
2014-Apr-15 22:04N 37°40' E 026°01'  
2014-Apr-13 04:32N 37°44' E 024°19'26 7.6
2014-Apr-13 01:10N 37°39' E 023°47'5 7.6
2014-Apr-13 00:33N 37°41' E 023°42'8 8.3
2014-Apr-12 23:33N 37°48' E 023°38'8 8.4
2014-Apr-12 22:33N 37°56' E 023°35'1 1.1
2014-Apr-12 21:33N 37°57' E 023°35'0 0.0
2014-Apr-12 20:33N 37°57' E 023°35'0 0.0
2014-Apr-12 19:33N 37°57' E 023°35'0 0.0
2014-Apr-12 18:33N 37°57' E 023°35'0 0.0
2014-Apr-12 17:33N 37°57' E 023°35'0 0.0
2014-Apr-12 16:33N 37°57' E 023°35'0 0.0
2014-Apr-12 15:33N 37°57' E 023°35'0 0.0
2014-Apr-12 14:33N 37°57' E 023°35'0 0.0
2014-Apr-12 13:33N 37°57' E 023°35'0 0.0
2014-Apr-12 12:33N 37°57' E 023°35'0 0.0
2014-Apr-12 11:33N 37°57' E 023°35'0 0.0
2014-Apr-12 10:33N 37°57' E 023°35'0 0.0
2014-Apr-12 09:33N 37°57' E 023°35'0 0.0
2014-Apr-12 08:33N 37°57' E 023°35'0 0.0
2014-Apr-12 07:33N 37°57' E 023°35'0 0.0
2014-Apr-12 06:33N 37°57' E 023°35'0 0.0
2014-Apr-12 05:33N 37°57' E 023°35'3 2.7
2014-Apr-12 04:33N 37°55' E 023°36'9 8.6
2014-Apr-12 03:33N 37°47' E 023°41'8 8.3
2014-Apr-12 02:33N 37°40' E 023°46'27 8.2
2014-Apr-11 23:18N 37°30' E 024°18'15 8.2
2014-Apr-11 21:32N 37°31' E 024°36'8 7.9
2014-Apr-11 20:32N 37°32' E 024°46'9 8.0
2014-Apr-11 19:25N 37°32' E 024°57'7 8.5
2014-Apr-11 18:33N 37°32' E 025°07'2 2.2
2014-Apr-11 17:33N 37°32' E 025°09'0 0.0
2014-Apr-11 16:32N 37°32' E 025°09'0 0.0
2014-Apr-11 15:33N 37°32' E 025°09'9 8.9
2014-Apr-11 14:33N 37°24' E 025°12'9 9.4
2014-Apr-11 13:33N 37°15' E 025°16'9 9.3
2014-Apr-11 12:33N 37°07' E 025°22'1 0.7
2014-Apr-11 11:32N 37°06' E 025°22'0 0.4
2014-Apr-11 10:32N 37°06' E 025°22'0 0.0
2014-Apr-11 09:33N 37°06' E 025°22'0 0.4
2014-Apr-11 08:33N 37°06' E 025°22'0 0.4
2014-Apr-11 07:33N 37°06' E 025°22'8 8.2
2014-Apr-11 06:33N 37°10' E 025°13'6 0.4
2014-Apr-10 15:29N 37°05' E 025°09'5 4.7
2014-Apr-10 14:26N 37°10' E 025°06'8 8.9
2014-Apr-10 13:33N 37°17' E 025°02'9 8.9
2014-Apr-10 12:33N 37°25' E 024°58'2 1.8
2014-Apr-10 11:33N 37°26' E 024°56'0 0.0
2014-Apr-10 10:33N 37°26' E 024°56'0 0.0
2014-Apr-10 09:33N 37°26' E 024°56'0 0.0
2014-Apr-10 08:33N 37°26' E 024°56'0 0.0
2014-Apr-10 07:33N 37°26' E 024°56'0 0.0
2014-Apr-10 06:32N 37°26' E 024°56'0 0.0
2014-Apr-10 05:32N 37°26' E 024°56'0 0.0
2014-Apr-10 04:33N 37°26' E 024°56'0 0.0
2014-Apr-10 03:33N 37°26' E 024°56'0 0.0
2014-Apr-10 02:32N 37°26' E 024°56'0 0.0
2014-Apr-10 01:33N 37°26' E 024°56'0 0.0
2014-Apr-10 00:33N 37°26' E 024°56'0 0.0
2014-Apr-09 23:33N 37°26' E 024°56'0 0.0
2014-Apr-09 22:32N 37°26' E 024°56'0 0.0
2014-Apr-09 21:32N 37°26' E 024°56'1 0.9
2014-Apr-09 20:33N 37°26' E 024°57'8 7.9
2014-Apr-09 19:32N 37°34' E 024°55'5 0.6
2014-Apr-09 11:32N 37°37' E 024°60'9 8.7
2014-Apr-09 10:33N 37°32' E 025°08'9 8.8
2014-Apr-09 09:33N 37°28' E 025°18'1 0.9
2014-Apr-09 08:33N 37°28' E 025°20'0 0.0
2014-Apr-09 07:33N 37°28' E 025°20'0 0.0
2014-Apr-09 06:33N 37°28' E 025°20'0 0.0
2014-Apr-09 05:33N 37°28' E 025°20'0 0.0
2014-Apr-09 04:32N 37°28' E 025°20'0 0.0
2014-Apr-09 03:33N 37°28' E 025°20'4 3.7
2014-Apr-09 02:33N 37°31' E 025°21'9 8.8
2014-Apr-09 01:33N 37°34' E 025°32'  
2014-Apr-06 19:33N 37°49' E 024°27'9 8.5
2014-Apr-06 18:32N 37°44' E 024°19'17 8.5
2014-Apr-06 16:31N 37°38' E 023°58'11 8.7
2014-Apr-06 15:15N 37°39' E 023°45'6 8.0
2014-Apr-06 14:33N 37°44' E 023°40'8 8.0
2014-Apr-06 13:32N 37°50' E 023°34'  

Dump ship's entire track history

sailing weather and tide predictions

Agios Georgios I — SX9857 — position and weather